createdAt,value
2019-04-26T00:08:15.567Z,9.3
2019-04-26T00:12:24.129Z,9.3
2019-04-26T00:13:16.909Z,9.3
2019-04-26T00:17:25.173Z,9.2
2019-04-26T00:18:16.704Z,9.2
2019-04-26T00:19:54.138Z,9.2
2019-04-26T00:21:34.473Z,9.2
2019-04-26T00:23:16.090Z,9.1
2019-04-26T00:28:15.348Z,9.1
2019-04-26T00:32:24.238Z,9.1
2019-04-26T00:33:17.491Z,9.1
2019-04-26T00:34:04.400Z,9.1
2019-04-26T00:34:54.407Z,9.1
2019-04-26T00:35:49.807Z,9
2019-04-26T00:37:24.592Z,9.1
2019-04-26T00:38:16.605Z,9
2019-04-26T00:39:04.730Z,9
2019-04-26T00:39:54.786Z,9
2019-04-26T00:40:44.895Z,9
2019-04-26T00:41:34.912Z,9
2019-04-26T00:42:24.682Z,9
2019-04-26T00:43:18.433Z,9
2019-04-26T00:44:05.088Z,8.9
2019-04-26T00:44:55.154Z,8.9
2019-04-26T00:45:44.962Z,8.9
2019-04-26T00:46:34.774Z,8.9
2019-04-26T00:47:25.337Z,8.9
2019-04-26T00:48:18.894Z,8.9
2019-04-26T00:49:55.525Z,8.9
2019-04-26T00:50:45.584Z,8.9
2019-04-26T00:51:35.396Z,8.9
2019-04-26T00:52:25.721Z,8.9
2019-04-26T00:53:19.526Z,8.8
2019-04-26T00:54:55.913Z,8.8
2019-04-26T00:55:45.970Z,8.8
2019-04-26T00:56:35.759Z,8.8
2019-04-26T00:57:26.398Z,8.8
2019-04-26T00:58:20.876Z,8.8
2019-04-26T00:59:55.998Z,8.8
2019-04-26T01:00:46.048Z,8.8
2019-04-26T01:01:36.391Z,8.8
2019-04-26T01:02:27.156Z,8.8
2019-04-26T01:03:18.609Z,8.8
2019-04-26T01:04:56.650Z,8.8
2019-04-26T01:05:46.433Z,8.7
2019-04-26T01:06:36.758Z,8.7
2019-04-26T01:07:27.008Z,8.7
2019-04-26T01:08:19.716Z,8.7
2019-04-26T01:09:57.008Z,8.7
2019-04-26T01:10:46.793Z,8.7
2019-04-26T01:11:37.125Z,8.7
2019-04-26T01:12:27.990Z,8.6
2019-04-26T01:13:20.373Z,8.6
2019-04-26T01:14:57.381Z,8.6
2019-04-26T01:15:47.435Z,8.6
2019-04-26T01:16:37.495Z,8.6
2019-04-26T01:17:28.467Z,8.6
2019-04-26T01:18:20.637Z,8.6
2019-04-26T01:19:57.737Z,8.6
2019-04-26T01:20:47.795Z,8.6
2019-04-26T01:21:37.867Z,8.6
2019-04-26T01:22:29.057Z,8.6
2019-04-26T01:23:21.395Z,8.6
2019-04-26T01:24:57.570Z,8.5
2019-04-26T01:25:48.177Z,8.5
2019-04-26T01:26:37.994Z,8.5
2019-04-26T01:27:29.205Z,8.5
2019-04-26T01:29:57.944Z,8.5
2019-04-26T01:30:48.262Z,8.5
2019-04-26T01:31:38.092Z,8.5
2019-04-26T01:32:29.314Z,8.4
2019-04-26T01:34:58.849Z,8.4
2019-04-26T01:36:38.987Z,8.4
2019-04-26T01:41:38.788Z,8.4
2019-04-26T01:42:30.284Z,8.4
2019-04-26T02:22:34.321Z,7.9
2019-04-26T02:32:38.298Z,7.8
2019-04-26T02:37:00.468Z,7.8
2019-04-26T02:42:38.789Z,7.7
2019-04-26T02:46:44.265Z,7.6
2019-04-26T02:47:40.233Z,7.6
2019-04-26T02:48:24.194Z,7.6
2019-04-26T02:49:14.363Z,7.6
2019-04-26T02:50:04.428Z,7.6
2019-04-26T02:50:54.208Z,7.5
2019-04-26T02:51:44.680Z,7.5
2019-04-26T02:52:40.167Z,7.5
2019-04-26T02:54:14.708Z,7.4
2019-04-26T02:55:04.496Z,7.5
2019-04-26T02:55:54.849Z,7.4
2019-04-26T02:56:44.917Z,7.4
2019-04-26T02:57:39.850Z,7.4
2019-04-26T02:59:15.323Z,7.4
2019-04-26T03:00:05.226Z,7.4
2019-04-26T03:00:55.245Z,7.4
2019-04-26T03:01:45.047Z,7.4
2019-04-26T03:02:41.645Z,7.4
2019-04-26T03:07:05.589Z,7.3
2019-04-26T03:09:18.253Z,7.3
2019-04-26T03:11:16.998Z,7.3
2019-04-26T03:12:41.097Z,7.3
2019-04-26T03:14:18.576Z,7.3
2019-04-26T03:15:15.909Z,7.3
2019-04-26T03:22:43.763Z,7.2
2019-04-26T03:24:00.087Z,7.1
2019-04-26T03:27:44.681Z,7.1
2019-04-26T03:30:25.109Z,7.1
2019-04-26T03:31:57.058Z,7.1
2019-04-26T03:32:56.045Z,7.1
2019-04-26T03:37:45.632Z,7.1
2019-04-26T03:42:45.693Z,7
2019-04-26T03:47:46.949Z,7.1
2019-04-26T03:57:47.190Z,7.1
2019-04-26T04:01:16.672Z,7.1
2019-04-26T04:02:47.870Z,7.2
2019-04-26T04:07:10.613Z,7.3
2019-04-26T04:12:13.307Z,7.4
2019-04-26T04:17:51.523Z,7.6
2019-04-26T04:27:50.025Z,7.8
2019-04-26T04:29:56.419Z,7.8
2019-04-26T04:36:55.719Z,8.3
2019-04-26T04:38:11.244Z,8.3
2019-04-26T04:41:09.317Z,8.6
2019-04-26T04:42:52.294Z,8.8
2019-04-26T04:46:56.054Z,9.3
2019-04-26T04:49:25.711Z,9.6
2019-04-26T04:50:15.673Z,9.8
2019-04-26T04:51:06.226Z,9.8
2019-04-26T04:52:52.643Z,10.1
2019-04-26T04:54:26.167Z,10.3
2019-04-26T04:55:15.800Z,10.5
2019-04-26T04:56:56.133Z,10.8
2019-04-26T04:57:48.035Z,10.9
2019-04-26T04:58:36.036Z,11.1
2019-04-26T05:00:16.375Z,11.4
2019-04-26T05:01:06.163Z,11.6
2019-04-26T05:01:56.247Z,11.8
2019-04-26T05:02:49.202Z,12
2019-04-26T05:04:26.674Z,12.4
2019-04-26T05:06:09.822Z,12.8
2019-04-26T05:06:56.877Z,13
2019-04-26T05:07:49.318Z,13.2
2019-04-26T05:09:26.786Z,13.6
2019-04-26T05:11:07.221Z,14.1
2019-04-26T05:12:11.634Z,14.3
2019-04-26T05:31:23.053Z,20.7
2019-04-26T05:48:13.261Z,27.4
2019-04-26T05:52:53.597Z,29.6
2019-04-26T05:53:55.497Z,29.9
2019-04-26T05:57:54.804Z,31.7
2019-04-26T05:58:41.007Z,32.1
2019-04-26T05:59:31.004Z,32.4
2019-04-26T06:00:20.874Z,32.9
2019-04-26T06:02:01.779Z,33.6
2019-04-26T06:02:54.507Z,34.1
2019-04-26T06:04:47.906Z,34.9
2019-04-26T06:05:37.958Z,35.4
2019-04-26T06:06:28.440Z,35.8
2019-04-26T06:07:18.061Z,36.2
2019-04-26T06:08:08.134Z,36.6
2019-04-26T06:09:01.611Z,36.9
2019-04-26T06:10:38.318Z,37.8
2019-04-26T06:11:27.820Z,38.1
2019-04-26T06:12:18.433Z,38.5
2019-04-26T06:13:08.496Z,38.9
2019-04-26T06:14:14.385Z,39.3
2019-04-26T06:15:38.686Z,40.1
2019-04-26T06:16:28.753Z,40.4
2019-04-26T06:17:18.816Z,40.8
2019-04-26T06:18:08.308Z,41.1
2019-04-26T06:19:00.252Z,41.5
2019-04-26T06:19:49.141Z,42.1
2019-04-26T06:20:38.993Z,43.4
2019-04-26T06:21:29.103Z,43.5
2019-04-26T06:22:19.173Z,42.6
2019-04-26T06:23:08.924Z,40.8
2019-04-26T06:24:01.977Z,38.3
2019-04-26T06:25:39.173Z,35.8
2019-04-26T06:26:29.473Z,35.3
2019-04-26T06:27:19.710Z,35
2019-04-26T06:28:09.614Z,34.9
2019-04-26T06:29:01.575Z,35
2019-04-26T06:30:47.510Z,35.7
2019-04-26T06:32:19.888Z,36.8
2019-04-26T06:33:10.865Z,37.4
2019-04-26T06:35:39.603Z,39.3
2019-04-26T06:36:30.240Z,39.9
2019-04-26T06:37:20.277Z,40.6
2019-04-26T06:38:54.239Z,41.8
2019-04-26T07:04:47.872Z,45.6
2019-04-26T07:05:52.298Z,45.7
2019-04-26T07:09:05.358Z,46.8
2019-04-26T07:20:53.684Z,48.9
2019-04-26T07:25:04.157Z,49.7
2019-04-26T07:28:15.159Z,50.3
2019-04-26T07:29:04.575Z,50.5
2019-04-26T07:39:21.953Z,52.4
2019-04-26T07:43:13.023Z,53.1
2019-04-26T07:44:03.781Z,53.2
2019-04-26T07:48:12.565Z,53.9
2019-04-26T07:49:03.140Z,54
2019-04-26T07:53:13.383Z,54.8
2019-04-26T07:56:30.652Z,55.4
2019-04-26T07:58:13.665Z,55.7
2019-04-26T07:59:09.390Z,55.9
2019-04-26T08:00:46.739Z,56.2
2019-04-26T08:03:15.016Z,56.6
2019-04-26T08:05:42.376Z,56.8
2019-04-26T08:06:32.399Z,56.8
2019-04-26T08:07:22.482Z,56.9
2019-04-26T08:08:14.907Z,57
2019-04-26T08:09:03.148Z,57.1
2019-04-26T08:10:01.445Z,57.2
2019-04-26T08:11:32.781Z,57.4
2019-04-26T08:12:22.312Z,57.4
2019-04-26T08:13:15.133Z,57.4
2019-04-26T08:14:04.594Z,57.5
2019-04-26T08:14:52.764Z,57.6
2019-04-26T08:16:33.173Z,57.9
2019-04-26T08:17:22.950Z,58.1
2019-04-26T08:18:15.696Z,58.3
2019-04-26T08:19:06.870Z,58.4
2019-04-26T08:21:34.021Z,58.8
2019-04-26T08:22:34.851Z,58.9
2019-04-26T08:23:44.274Z,59.1
2019-04-26T08:24:53.777Z,59.3
2019-04-26T08:25:43.832Z,59.4
2019-04-26T08:26:33.908Z,59.5
2019-04-26T08:27:26.040Z,59.7
2019-04-26T08:28:16.418Z,59.8
2019-04-26T08:29:04.083Z,59.9
2019-04-26T08:29:54.140Z,60
2019-04-26T08:30:47.755Z,60.1
2019-04-26T08:32:23.798Z,60.4
2019-04-26T08:33:18.622Z,60.5
2019-04-26T08:34:54.785Z,60.7
2019-04-26T08:35:54.180Z,60.8
2019-04-26T08:37:24.740Z,61
2019-04-26T08:38:24.205Z,61.1
2019-04-26T08:39:54.616Z,61.3
2019-04-26T08:40:44.952Z,61.4
2019-04-26T08:41:41.247Z,61.5
2019-04-26T08:43:15.964Z,61.7
2019-04-26T08:44:11.747Z,61.8
2019-04-26T08:46:04.833Z,61.9
2019-04-26T08:49:11.600Z,62.2
2019-04-26T08:50:48.549Z,62.3
2019-04-26T08:52:25.826Z,62.5
2019-04-26T08:53:15.864Z,62.6
2019-04-26T08:54:05.952Z,62.7
2019-04-26T08:54:56.009Z,62.8
2019-04-26T08:55:45.505Z,62.9
2019-04-26T08:56:36.116Z,63.1
2019-04-26T08:57:26.182Z,63.2
2019-04-26T08:58:16.261Z,63.3
2019-04-26T08:59:06.311Z,63.4
2019-04-26T08:59:55.836Z,63.4
2019-04-26T09:00:46.174Z,63.4
2019-04-26T09:01:35.944Z,63.5
2019-04-26T09:02:26.275Z,63.6
2019-04-26T09:03:15.783Z,63.6
2019-04-26T09:04:06.676Z,63.6
2019-04-26T09:04:56.754Z,63.7
2019-04-26T09:05:52.421Z,63.8
2019-04-26T09:07:26.126Z,63.9
2019-04-26T09:08:16.746Z,64.1
2019-04-26T09:09:07.051Z,64.2
2019-04-26T09:10:12.385Z,64.3
2019-04-26T09:11:37.225Z,64.4
2019-04-26T09:13:17.355Z,64.6
2019-04-26T09:14:57.553Z,64.9
2019-04-26T09:16:50.834Z,65.1
2019-04-26T09:20:10.069Z,65.3
2019-04-26T09:25:02.535Z,65.8
2019-04-26T09:26:01.075Z,65.9
2019-04-26T09:30:06.885Z,66.7
2019-04-26T09:40:23.402Z,67.5
2019-04-26T10:02:36.425Z,69.2
2019-04-26T10:05:47.180Z,69.4
2019-04-26T10:06:37.775Z,69.4
2019-04-26T10:07:27.832Z,69.4
2019-04-26T10:08:17.635Z,69.3
2019-04-26T10:09:07.974Z,69.3
2019-04-26T10:10:02.697Z,69.3
2019-04-26T10:11:45.555Z,69.2
2019-04-26T10:13:18.265Z,69.3
2019-04-26T10:14:08.317Z,69.4
2019-04-26T10:14:58.140Z,69.6
2019-04-26T10:15:48.188Z,69.7
2019-04-26T10:16:43.717Z,69.8
2019-04-26T10:18:26.964Z,70
2019-04-26T10:19:58.757Z,70.1
2019-04-26T10:21:38.949Z,70.3
2019-04-26T10:22:28.674Z,70.3
2019-04-26T10:23:18.726Z,70.4
2019-04-26T10:24:10.530Z,70.5
2019-04-26T10:25:09.927Z,70.6
2019-04-26T10:27:29.073Z,70.6
2019-04-26T10:28:19.404Z,70.6
2019-04-26T10:29:09.443Z,70.6
2019-04-26T10:30:11.059Z,70.5
2019-04-26T10:31:39.648Z,70.3
2019-04-26T10:32:29.911Z,70.3
2019-04-26T10:33:19.746Z,70.3
2019-04-26T10:34:14.511Z,70.4
2019-04-26T10:37:52.473Z,70.6
2019-04-26T10:40:00.318Z,70.1
2019-04-26T10:40:50.326Z,69.9
2019-04-26T10:41:40.381Z,69.7
2019-04-26T10:42:30.455Z,69.6
2019-04-26T10:44:10.565Z,69.5
2019-04-26T10:45:00.618Z,69.6
2019-04-26T10:48:23.753Z,69.8
2019-04-26T11:05:56.601Z,69.7
2019-04-26T11:18:29.844Z,68.9
2019-04-26T11:20:10.277Z,68.9
2019-04-26T11:22:40.157Z,69.2
2019-04-26T11:24:21.941Z,69.4
2019-04-26T11:30:22.651Z,69.4
2019-04-26T11:32:39.216Z,69.2
2019-04-26T11:38:33.720Z,69.1
2019-04-26T11:40:19.357Z,69.3
2019-04-26T11:41:08.829Z,69.4
2019-04-26T11:45:17.222Z,69.6
2019-04-26T11:47:57.202Z,69.6
2019-04-26T11:52:38.868Z,69.6
2019-04-26T11:54:23.218Z,69.6
2019-04-26T12:00:22.865Z,69.2
2019-04-26T12:05:47.649Z,69.3
2019-04-26T12:06:37.714Z,69.3
2019-04-26T12:07:27.487Z,69.3
2019-04-26T12:08:17.812Z,69.4
2019-04-26T12:09:07.324Z,69.4
2019-04-26T12:09:57.685Z,69.3
2019-04-26T12:12:09.065Z,69.2
2019-04-26T12:13:24.899Z,68.8
2019-04-26T12:14:21.743Z,68.6
2019-04-26T12:15:48.111Z,68.4
2019-04-26T12:17:01.844Z,68.4
2019-04-26T12:17:36.776Z,68.3
2019-04-26T12:19:08.636Z,68.1
2019-04-26T12:19:58.158Z,68
2019-04-26T12:21:38.545Z,67.7
2019-04-26T12:22:28.867Z,67.6
2019-04-26T12:23:23.346Z,67.4
2019-04-26T12:24:59.071Z,67.3
2019-04-26T12:25:50.231Z,67.2
2019-04-26T12:26:47.853Z,67.1
2019-04-26T12:29:16.665Z,67
2019-04-26T12:30:48.962Z,66.9
2019-04-26T12:31:39.342Z,66.8
2019-04-26T12:32:29.623Z,66.6
2019-04-26T12:33:19.411Z,66.5
2019-04-26T12:34:09.735Z,66.4
2019-04-26T12:34:59.292Z,66.4
2019-04-26T12:35:58.463Z,66.4
2019-04-26T12:37:29.465Z,66.3
2019-04-26T12:38:20.060Z,66.3
2019-04-26T12:39:10.113Z,66.2
2019-04-26T12:40:00.180Z,66.1
2019-04-26T12:40:49.972Z,66
2019-04-26T12:41:42.383Z,65.9
2019-04-26T12:43:27.155Z,65.7
2019-04-26T12:45:54.054Z,65.1
2019-04-26T12:47:40.674Z,65
2019-04-26T12:49:10.575Z,64.8
2019-04-26T12:51:52.392Z,64.3
2019-04-26T12:55:59.673Z,64.1
2019-04-26T13:00:56.289Z,63.9
2019-04-26T13:01:48.613Z,63.9
2019-04-26T13:03:30.989Z,63.8
2019-04-26T13:06:00.708Z,63.8
2019-04-26T13:11:58.321Z,63.4
2019-04-26T13:17:38.446Z,61
2019-04-26T13:19:19.802Z,61.3
2019-04-26T13:22:55.911Z,62.6
2019-04-26T13:30:12.634Z,64
2019-04-26T13:33:30.212Z,64.4
2019-04-26T13:35:11.269Z,64.6
2019-04-26T13:37:38.511Z,65.4
2019-04-26T13:39:23.489Z,64.4
2019-04-26T13:43:29.956Z,59.5
2019-04-26T13:49:20.386Z,57.6
2019-04-26T13:54:23.692Z,57.9
2019-04-26T13:56:03.422Z,57.9
2019-04-26T13:58:27.621Z,57.9
2019-04-26T14:00:27.880Z,57.6
2019-04-26T14:01:45.998Z,57
2019-04-26T14:02:36.317Z,56.7
2019-04-26T14:03:34.051Z,56.4
2019-04-26T14:06:47.385Z,55.3
2019-04-26T14:08:27.422Z,54.5
2019-04-26T14:09:17.770Z,54.2
2019-04-26T14:10:07.820Z,53.9
2019-04-26T14:10:57.874Z,53.4
2019-04-26T14:11:47.666Z,53.1
2019-04-26T14:12:37.445Z,52.8
2019-04-26T14:14:18.127Z,52.1
2019-04-26T14:15:26.394Z,51.8
2019-04-26T14:16:48.327Z,51.4
2019-04-26T14:17:38.389Z,51.3
2019-04-26T14:18:28.184Z,51.1
2019-04-26T14:19:18.873Z,51
2019-04-26T14:20:08.591Z,50.8
2019-04-26T14:22:43.636Z,50.4
2019-04-26T14:24:25.959Z,50.3
2019-04-26T14:25:23.041Z,50.3
2019-04-26T16:07:03.003Z,33.6
2019-04-26T16:07:52.956Z,33.4
2019-04-26T16:09:24.017Z,33.3
2019-04-26T16:10:57.264Z,33.1
2019-04-26T16:11:55.876Z,32.9
2019-04-26T16:13:27.743Z,32.6
2019-04-26T16:14:17.790Z,32.5
2019-04-26T16:15:15.621Z,32.4
2019-04-26T16:16:47.687Z,32.1
2019-04-26T16:17:42.850Z,31.9
2019-04-26T16:19:18.424Z,31.6
2019-04-26T16:20:08.217Z,31.5
2019-04-26T16:20:58.273Z,31.4
2019-04-26T16:21:56.114Z,31.3
2019-04-26T16:23:55.797Z,31
2019-04-26T16:25:23.532Z,30.7
2019-04-26T16:31:49.153Z,29.7
2019-04-26T16:32:39.190Z,29.6
2019-04-26T16:35:30.431Z,29.4
2019-04-26T16:40:15.001Z,28.6
2019-04-26T16:42:39.100Z,28.2
2019-04-26T16:43:55.517Z,28.1
2019-04-26T16:50:31.325Z,27.4
2019-04-26T16:51:24.394Z,27.2
2019-04-26T16:57:13.742Z,26.6
2019-04-26T16:59:36.554Z,26.4
2019-04-26T17:02:45.633Z,26.3
2019-04-26T17:06:11.324Z,25.9
2019-04-26T17:10:00.557Z,25.7
2019-04-26T17:12:54.717Z,25.3
2019-04-26T17:15:27.229Z,25.1
2019-04-26T17:16:18.692Z,25
2019-04-26T17:16:54.881Z,25
2019-04-26T17:19:24.672Z,24.9
2019-04-26T17:22:17.371Z,24.7
2019-04-26T17:23:34.744Z,24.6
2019-04-26T17:25:27.537Z,24.5
2019-04-26T17:27:48.246Z,24.3
2019-04-26T17:28:35.281Z,24.3
2019-04-26T17:29:25.596Z,24.2
2019-04-26T17:30:15.668Z,24.1
2019-04-26T17:31:34.813Z,24.1
2019-04-26T17:32:56.125Z,23.9
2019-04-26T17:34:34.121Z,23.8
2019-04-26T17:36:56.153Z,23.6
2019-04-26T17:42:48.155Z,23.2
2019-04-26T17:45:23.642Z,23
2019-04-26T17:48:35.641Z,22.8
2019-04-26T17:49:42.181Z,22.7
2019-04-26T17:52:16.184Z,22.5
2019-04-26T17:53:33.599Z,22.4
2019-04-26T17:54:51.919Z,22.3
2019-04-26T17:55:56.931Z,22.3
2019-04-26T17:57:14.242Z,22.2
2019-04-26T18:00:20.639Z,22
2019-04-26T18:08:51.165Z,21.7
2019-04-26T18:12:42.268Z,21.4
2019-04-26T18:16:30.086Z,21.2
2019-04-26T18:17:20.793Z,21.2
2019-04-26T18:19:48.936Z,21.1
2019-04-26T18:20:45.590Z,21.1
2019-04-26T18:24:34.919Z,20.9
2019-04-26T18:26:05.087Z,20.8
2019-04-26T18:28:55.724Z,20.7
2019-04-26T18:30:54.680Z,20.6
2019-04-26T18:31:53.566Z,20.5
2019-04-26T18:32:49.237Z,20.5
2019-04-26T18:35:31.597Z,20.4
2019-04-26T18:36:50.307Z,20.3
2019-04-26T18:37:43.212Z,20.3
2019-04-26T18:39:29.563Z,20.3
2019-04-26T18:41:45.129Z,20.1
2019-04-26T18:44:05.244Z,20.1
2019-04-26T18:45:45.469Z,20
2019-04-26T18:47:10.510Z,20
2019-04-26T18:49:17.553Z,19.9
2019-04-26T18:50:55.846Z,19.9
2019-04-26T18:53:55.894Z,19.8
2019-04-26T18:58:34.643Z,19.7
2019-04-26T18:59:33.991Z,19.6
2019-04-26T19:00:36.449Z,19.6
2019-04-26T19:01:18.813Z,19.6
2019-04-26T19:03:49.267Z,19.5
2019-04-26T19:06:29.542Z,19.4
2019-04-26T19:08:09.906Z,19.4
2019-04-26T19:11:48.735Z,19.4
2019-04-26T19:15:08.312Z,19.3
2019-04-26T19:17:54.083Z,19.3
2019-04-26T19:20:24.392Z,19.3
2019-04-26T19:23:44.959Z,19.3
2019-04-26T19:24:34.694Z,19.2
2019-04-26T19:29:44.767Z,19.1
2019-04-26T19:31:28.596Z,19.1
2019-04-26T19:33:57.569Z,19.1
2019-04-26T19:34:44.146Z,19.1
2019-04-26T19:37:39.594Z,19
2019-04-26T19:39:33.178Z,19
2019-04-26T19:43:47.301Z,18.9
2019-04-26T19:45:23.368Z,18.9
2019-04-26T19:48:38.400Z,18.9
2019-04-26T19:49:37.432Z,18.9
2019-04-26T19:54:39.650Z,18.8
2019-04-26T19:56:28.147Z,18.8
2019-04-26T20:03:55.336Z,18.6
2019-04-26T20:05:49.247Z,18.6
2019-04-26T20:07:51.641Z,18.5
2019-04-26T20:08:52.909Z,18.5
2019-04-26T20:12:03.779Z,18.4
2019-04-26T20:14:58.987Z,18.3
2019-04-26T20:17:21.319Z,18.3
2019-04-26T20:19:39.468Z,18.3
2019-04-26T20:20:36.878Z,18.2
2019-04-26T20:21:18.903Z,18.2
2019-04-26T20:23:52.019Z,18.1
2019-04-26T20:24:39.310Z,18.1
2019-04-26T20:25:32.707Z,18.1
2019-04-26T20:26:19.775Z,18.1
2019-04-26T20:27:13.948Z,18.1
2019-04-26T20:29:52.119Z,18
2019-04-26T20:31:20.093Z,18
2019-04-26T20:32:10.128Z,17.9
2019-04-26T20:34:45.202Z,17.9
2019-04-26T20:36:22.101Z,17.9
2019-04-26T20:37:10.034Z,17.9
2019-04-26T20:38:06.370Z,17.9
2019-04-26T20:39:42.440Z,17.8
2019-04-26T20:40:30.258Z,17.9
2019-04-26T20:41:22.577Z,17.8
2019-04-26T20:42:13.018Z,17.8
2019-04-26T20:43:27.058Z,17.8
2019-04-26T20:46:16.013Z,17.8
2019-04-26T20:47:21.497Z,17.7
2019-04-26T20:49:09.285Z,17.6
2019-04-26T20:50:04.087Z,17.6
2019-04-26T20:51:28.734Z,17.6
2019-04-26T20:52:26.494Z,17.6
2019-04-26T20:53:59.182Z,17.6
2019-04-26T20:56:29.334Z,17.5
2019-04-26T20:57:19.396Z,17.5
2019-04-26T20:58:12.241Z,17.5
2019-04-26T20:58:59.249Z,17.5
2019-04-26T21:00:17.257Z,17.4
2019-04-26T21:01:29.449Z,17.4
2019-04-26T21:02:26.344Z,17.4
2019-04-26T21:03:29.225Z,17.4
2019-04-26T21:04:51.942Z,17.4
2019-04-26T21:06:02.978Z,17.4
2019-04-26T21:08:10.209Z,17.3
2019-04-26T21:09:07.607Z,17.3
2019-04-26T21:10:42.241Z,17.3
2019-04-26T21:11:41.124Z,17.3
2019-04-26T21:13:12.167Z,17.2
2019-04-26T21:14:09.879Z,17.2
2019-04-26T21:16:15.152Z,17.2
2019-04-26T21:17:28.263Z,17.1
2019-04-26T21:19:03.288Z,17.1
2019-04-26T21:19:59.663Z,17.1
2019-04-26T21:21:33.041Z,17.1
2019-04-26T21:22:32.165Z,17.1
2019-04-26T21:27:33.854Z,16.9
2019-04-26T21:29:06.627Z,16.9
2019-04-26T21:31:31.968Z,16.9
2019-04-26T21:32:34.964Z,16.9
2019-04-26T21:34:01.678Z,16.9
2019-04-26T21:34:54.910Z,16.9
2019-04-26T21:35:44.498Z,16.8
2019-04-26T21:36:43.803Z,16.9
2019-04-26T21:39:08.977Z,16.8
2019-04-26T21:44:15.779Z,16.8
2019-04-26T21:47:35.456Z,16.8
2019-04-26T21:50:02.024Z,16.7
2019-04-26T21:52:30.623Z,16.7
2019-04-26T21:57:32.738Z,16.6
2019-04-26T22:02:37.823Z,16.5
2019-04-26T22:05:52.145Z,16.4
2019-04-26T22:08:26.317Z,16.4
2019-04-26T22:12:32.867Z,16.3
2019-04-26T22:15:04.430Z,16.3
2019-04-26T22:16:39.737Z,16.3
2019-04-26T22:18:23.067Z,16.3
2019-04-26T22:20:55.492Z,16.2
2019-04-26T22:23:25.600Z,16.2
2019-04-26T22:26:49.104Z,16.1
2019-04-26T22:29:17.838Z,16.1
2019-04-26T22:31:44.016Z,16
2019-04-26T22:34:10.539Z,16
2019-04-26T22:37:34.208Z,15.9
2019-04-26T22:40:57.307Z,15.8
2019-04-26T22:43:23.416Z,15.8
2019-04-26T22:45:48.946Z,15.8
2019-04-26T22:46:50.797Z,15.8
2019-04-26T22:48:27.113Z,15.8
2019-04-26T22:55:48.305Z,15.6
2019-04-26T22:56:39.950Z,15.6
2019-04-26T22:58:29.852Z,15.6
2019-04-26T22:59:58.602Z,15.5
2019-04-26T23:01:50.027Z,15.5
2019-04-26T23:03:18.914Z,15.4
2019-04-26T23:04:08.945Z,15.4
2019-04-26T23:05:06.866Z,15.4
2019-04-26T23:06:42.355Z,15.3
2019-04-26T23:07:28.654Z,15.3
2019-04-26T23:08:18.986Z,15.3
2019-04-26T23:09:23.116Z,15.3
2019-04-26T23:10:49.141Z,15.3
2019-04-26T23:11:47.766Z,15.3
2019-04-26T23:13:19.613Z,15.3
2019-04-26T23:14:20.149Z,15.3
2019-04-26T23:15:49.811Z,15.3
2019-04-26T23:17:08.871Z,15.2
2019-04-26T23:19:10.061Z,15.1
2019-04-26T23:19:59.850Z,15.2
2019-04-26T23:20:50.183Z,15.1
2019-04-26T23:21:43.738Z,15.1
2019-04-26T23:24:20.038Z,15.1
2019-04-26T23:25:50.553Z,15.1
2019-04-26T23:26:46.713Z,15.1
2019-04-26T23:28:20.741Z,15.1
2019-04-26T23:29:20.433Z,15.1
2019-04-26T23:30:50.391Z,15.1
2019-04-26T23:31:45.795Z,15.1
2019-04-26T23:33:21.112Z,15.1
2019-04-26T23:34:10.915Z,15
2019-04-26T23:35:07.695Z,15
2019-04-26T23:36:40.823Z,14.9
2019-04-26T23:37:31.437Z,14.9
2019-04-26T23:38:21.227Z,14.9
2019-04-26T23:39:14.577Z,14.9
2019-04-26T23:40:51.703Z,14.9
2019-04-26T23:41:45.924Z,14.9
2019-04-26T23:43:26.877Z,14.9
2019-04-26T23:46:43.787Z,14.8
2019-04-26T23:47:40.192Z,14.8
2019-04-26T23:49:14.265Z,14.8
2019-04-26T23:50:53.628Z,14.8
2019-04-26T23:55:10.376Z,14.7
2019-04-26T23:56:44.212Z,14.6
2019-04-26T23:59:22.594Z,14.6
